메인 페이지
METAR-TAF:

METAR-TAF

공항 :

테구시갈파, 온두라스

위도: 14-03N, 경도: 087-13W, 고도: 994m

현재 날씨관측

예보는 1 시간 51분 전, 22:00시(UTC)에 발표되었습니다.
북북동10kt
온도 32°C
습도 23%
기압 1013 hPa
시정: 8000m
고도 3400ft 상공 구름 많음

METAR: MHTG 312200Z 03010KT 8000 BKN034 32/08 Q1013 A2992

시각: 17:51 (23:51 UTC)

예보

예보는 1 시간 26분 전, 22:25시(UTC)에 발표되었습니다.
예보 대상 시간: 01일 00시부터 01일 24시까지 (UTC)
동남동4kt
시정 10km 이상
고도 3000ft 상공 구름 많음
전환 중
01일 02시부터 01일 04시까지 (UTC)
kt
전환 중
01일 06시부터 01일 08시까지 (UTC)
서남서4kt
전환 중
01일 10시부터 01일 12시까지 (UTC)
kt
고도 2500ft 상공 구름 보통
전환 중
01일 20시부터 01일 22시까지 (UTC)
고도 2800ft 상공 구름 많음
고도 8000ft 상공 구름 보통

TAF: MHTG 312225Z 0100/0124 12004KT 9999 BKN030 TX28/0121Z TN16/0112Z BECMG 0102/0104 00000KT BECMG 0106/0108 24004KT BECMG 0110/0112 00000KT SCT025 BECMG 0120/0122 BKN028 SCT080

4,000개 이상의 공항 관측 자료 및 예보 (METAR 및 TAF 보고).

지도상에서 검색 가능한 기상관측소가 노란 점과 빨간 점으로 표시되어 있습니다.

기상관측소 명을 보려면 표시 위로 마우스를 이동하세요.

날씨 관측과 예보를 보려면 클릭하세요.

지도 변경 : 확대하려면 엑스 표시가 있는 녹색 버튼, 축소하려면 빼기 표시가 있는 녹색 버튼, 다음 페이지의 지도를 보려면 녹색 화살표를 클릭하세요.


METAR-TAF: